Terminal Aerodrome Forecast
Issued by NWS El Paso, TX

Home | Current Version | Previous Version | Text Only | Print | Product List | Glossary On
Versions: 1 2 3 4 5 6 7 8 9 10 11 12 13 14 15 16 17 18
000
FTUS44 KEPZ 040539
TAFELP
TAF
KELP 040539Z 0406/0506 15010KT P6SM VCTS SCT080CB BKN200
     FM040900 03006KT P6SM SCT100 SCT250
     FM042200 VRB06KT P6SM VCTS SCT070CB SCT200=

USA.gov is the U.S. government's official web portal to all federal, state and local government web resources and services.